Lamy, New Mexico
Current Conditions -  °F | °C
As of 7:53 PM on Thursday 27 Nov 2014 (Local Time) from KSAF Reporting Station
Clear Clear  
Wind Chill:   Ceiling: Unl
Heat Index:   Visibility: 10mi
Dew Point: -7°   Wind: 3mph
Humidity: 56%   Direction: 360°N
Pressure: 30.35"   Gusts: NA
Location:  35.48°N, 105.88°W
Report Text: KSAF 280253Z 36003KT 10SM CLR 01/M07 A3035 RMK AO2 SLP276 T00061072 51002
Loading
Personal Weather Stations






























Interactive Weather Map New forecast layout! Learn more

10-Day Weather Forecast

Advertisements
Track Severe Weather on mobile